Time;durP1;ratioP1;P1;durP2;ratioP2;P2;SDS_P1;SDS_P2;PMS_P1;PMS_P2;Temp;Humidity;BMP_temperature;BMP_pressure;BME280_temperature;BME280_humidity;BME280_pressure;Samples;Min_cycle;Max_cycle;Signal;HPM_P1;HPM_P2
2021/08/31 00:00:11;;;;;;;14.50;8.68;;;;;;;15.26;72.08;96431.63;5052868;28;20017;-56
2021/08/31 00:02:36;;;;;;;15.98;9.10;;;;;;;15.06;72.95;96429.31;5052712;28;20049;-57
2021/08/31 00:05:03;;;;;;;15.38;9.27;;;;;;;14.88;73.57;96425.03;5052794;28;20065;-57
2021/08/31 00:07:28;;;;;;;13.13;9.27;;;;;;;14.85;74.07;96414.69;5052667;28;20021;-56
2021/08/31 00:09:54;;;;;;;11.98;8.90;;;;;;;14.90;74.09;96427.59;5055981;28;20075;-57
2021/08/31 00:12:19;;;;;;;14.48;9.93;;;;;;;14.90;73.99;96420.50;5056640;28;20040;-56
2021/08/31 00:14:45;;;;;;;16.42;9.80;;;;;;;14.95;73.72;96422.03;5056540;28;20025;-59
2021/08/31 00:17:10;;;;;;;13.93;9.07;;;;;;;15.02;73.42;96428.66;5056465;28;20021;-58
2021/08/31 00:19:36;;;;;;;21.05;10.18;;;;;;;15.03;73.41;96433.81;5056531;28;20020;-57
2021/08/31 00:22:02;;;;;;;15.20;9.07;;;;;;;15.10;73.38;96436.09;5056466;28;20025;-55
2021/08/31 00:24:28;;;;;;;15.23;8.60;;;;;;;15.07;72.84;96436.28;5056470;28;20374;-59
2021/08/31 00:26:53;;;;;;;12.35;8.75;;;;;;;15.13;72.44;96438.56;5056317;28;20116;-55
2021/08/31 00:29:19;;;;;;;9.70;7.90;;;;;;;15.18;72.16;96433.88;5056253;28;20070;-59
2021/08/31 00:31:44;;;;;;;13.05;8.57;;;;;;;15.20;71.59;96439.88;5056323;28;20115;-59
2021/08/31 00:34:10;;;;;;;11.80;8.02;;;;;;;15.15;71.57;96439.31;5056382;28;20104;-55
2021/08/31 00:36:35;;;;;;;15.60;8.75;;;;;;;15.12;71.10;96443.00;5056126;28;20463;-55
2021/08/31 00:39:01;;;;;;;14.38;8.20;;;;;;;15.08;71.14;96446.72;5056038;28;20036;-56
2021/08/31 00:41:26;;;;;;;12.05;8.50;;;;;;;15.02;71.85;96449.72;5055750;28;20041;-54
2021/08/31 00:43:53;;;;;;;14.55;8.65;;;;;;;15.02;72.22;96447.09;5056008;28;20063;-55
2021/08/31 00:46:20;;;;;;;11.65;9.10;;;;;;;14.99;72.33;96445.47;5055995;28;20501;-54
2021/08/31 00:48:47;;;;;;;18.15;9.27;;;;;;;14.94;72.31;96446.66;5055933;28;20356;-54
2021/08/31 00:51:14;;;;;;;15.05;8.90;;;;;;;14.96;72.57;96447.44;5055819;28;20547;-53
2021/08/31 00:53:40;;;;;;;9.98;7.70;;;;;;;14.97;72.08;96455.25;5055961;28;20417;-58
2021/08/31 00:56:10;;;;;;;15.48;8.77;;;;;;;14.89;72.64;96450.41;5055704;28;20078;-58
2021/08/31 00:58:36;;;;;;;14.83;8.87;;;;;;;14.86;72.64;96457.63;5055931;28;20024;-57
2021/08/31 01:01:03;;;;;;;12.88;8.05;;;;;;;14.84;72.68;96455.09;5055738;28;20021;-59
2021/08/31 01:03:28;;;;;;;13.35;8.30;;;;;;;14.82;72.76;96454.34;5055681;28;20033;-55
2021/08/31 01:05:58;;;;;;;14.20;8.88;;;;;;;14.81;72.31;96443.91;5055543;28;20032;-55
2021/08/31 01:08:24;;;;;;;16.77;8.83;;;;;;;14.82;71.89;96451.72;5055661;28;20056;-57
2021/08/31 01:10:57;;;;;;;15.23;8.25;;;;;;;14.82;72.59;96459.59;5055474;28;20731;-57
2021/08/31 01:13:23;;;;;;;14.15;8.75;;;;;;;14.81;72.32;96450.00;5055432;28;20017;-55
2021/08/31 01:15:49;;;;;;;15.60;8.50;;;;;;;14.84;72.70;96454.25;5055330;28;20017;-57
2021/08/31 01:18:14;;;;;;;12.50;8.20;;;;;;;14.83;72.30;96453.41;5055479;28;20597;-56
2021/08/31 01:20:40;;;;;;;14.60;8.98;;;;;;;14.82;72.04;96456.13;5054801;28;20021;-58
2021/08/31 01:23:06;;;;;;;15.20;8.50;;;;;;;14.81;72.31;96451.78;5055384;28;20029;-56
2021/08/31 01:25:31;;;;;;;12.65;9.02;;;;;;;14.77;72.48;96441.41;5055343;28;20363;-54
2021/08/31 01:27:57;;;;;;;15.48;9.15;;;;;;;14.79;72.25;96443.97;5055233;28;20544;-55
2021/08/31 01:30:22;;;;;;;18.08;9.10;;;;;;;14.80;72.37;96442.19;5055083;28;20021;-55
2021/08/31 01:32:48;;;;;;;13.18;7.82;;;;;;;14.78;72.04;96445.75;5054986;28;20052;-57
2021/08/31 01:35:13;;;;;;;12.38;7.95;;;;;;;14.78;72.36;96448.38;5055199;28;20075;-55
2021/08/31 01:37:39;;;;;;;10.30;7.68;;;;;;;14.74;71.58;96454.75;5055075;28;20017;-55
2021/08/31 01:40:05;;;;;;;17.90;8.35;;;;;;;14.74;72.48;96456.50;5054914;28;20033;-57
2021/08/31 01:42:30;;;;;;;13.85;8.73;;;;;;;14.70;72.10;96455.00;5054741;28;20416;-55
2021/08/31 01:44:56;;;;;;;11.73;8.70;;;;;;;14.70;72.64;96461.13;5054972;28;20535;-57
2021/08/31 01:47:22;;;;;;;16.90;8.88;;;;;;;14.78;72.48;96455.47;5054959;28;20444;-58
2021/08/31 01:49:47;;;;;;;13.35;7.85;;;;;;;14.74;72.21;96461.78;5054847;28;20071;-55
2021/08/31 01:52:13;;;;;;;12.77;8.13;;;;;;;14.75;72.17;96459.06;5054938;28;20036;-57
2021/08/31 01:54:38;;;;;;;14.95;7.88;;;;;;;14.71;72.25;96465.44;5054838;28;20475;-56
2021/08/31 01:57:04;;;;;;;14.55;8.13;;;;;;;14.66;72.23;96465.69;5054747;28;20061;-58
2021/08/31 01:59:29;;;;;;;12.93;8.55;;;;;;;14.67;72.64;96458.66;5054861;28;20025;-57
2021/08/31 02:01:55;;;;;;;16.67;7.88;;;;;;;14.71;72.01;96457.53;5054772;28;20025;-51
2021/08/31 02:04:20;;;;;;;13.52;8.60;;;;;;;14.74;71.88;96459.16;5054469;28;20378;-57
2021/08/31 02:06:46;;;;;;;12.98;7.25;;;;;;;14.68;71.14;96451.59;5054563;28;20083;-57
2021/08/31 02:09:11;;;;;;;11.50;7.32;;;;;;;14.67;71.45;96448.13;5054435;28;20029;-57
2021/08/31 02:11:37;;;;;;;11.57;8.68;;;;;;;14.64;72.10;96458.81;5054240;28;20017;-56
2021/08/31 02:14:03;;;;;;;10.38;7.88;;;;;;;14.66;72.24;96459.59;5054386;28;20028;-56
2021/08/31 02:16:28;;;;;;;12.18;8.02;;;;;;;14.69;71.64;96464.66;5054257;28;20021;-56
2021/08/31 02:18:54;;;;;;;9.93;7.63;;;;;;;14.66;71.82;96462.22;5054294;28;20079;-56
2021/08/31 02:21:20;;;;;;;10.48;7.43;;;;;;;14.55;71.29;96465.44;5054209;28;20024;-56
2021/08/31 02:23:45;;;;;;;13.35;7.57;;;;;;;14.52;71.68;96465.63;5054153;28;20017;-56
2021/08/31 02:26:11;;;;;;;13.90;7.35;;;;;;;14.45;72.33;96459.00;5054144;28;20033;-52
2021/08/31 02:28:36;;;;;;;12.48;8.00;;;;;;;14.44;72.44;96455.50;5054020;28;20025;-52
2021/08/31 02:31:02;;;;;;;10.80;8.25;;;;;;;14.38;72.34;96453.22;5054090;28;20029;-54
2021/08/31 02:33:27;;;;;;;11.88;8.43;;;;;;;14.37;72.25;96452.38;5053151;28;20025;-55
2021/08/31 02:35:54;;;;;;;13.05;8.27;;;;;;;14.36;72.56;96455.09;5054040;28;20029;-56
2021/08/31 02:38:19;;;;;;;13.70;8.35;;;;;;;14.34;72.83;96449.06;5053897;28;20074;-55
2021/08/31 02:40:45;;;;;;;12.05;8.50;;;;;;;14.37;72.48;96451.53;5053540;28;20021;-56
2021/08/31 02:43:10;;;;;;;14.60;9.23;;;;;;;14.37;72.81;96449.75;5053832;28;20052;-55
2021/08/31 02:45:36;;;;;;;11.38;8.05;;;;;;;14.39;72.61;96458.38;5053764;28;20025;-56
2021/08/31 02:48:02;;;;;;;9.75;7.35;;;;;;;14.44;72.35;96458.13;5053765;28;20459;-55
2021/08/31 02:50:27;;;;;;;12.95;8.35;;;;;;;14.46;72.35;96452.78;5053641;28;20021;-57
2021/08/31 02:52:53;;;;;;;10.82;7.38;;;;;;;14.47;71.66;96462.38;5053638;28;20510;-54
2021/08/31 02:55:18;;;;;;;10.65;7.57;;;;;;;14.41;71.66;96463.56;5053573;28;20048;-57
2021/08/31 02:57:44;;;;;;;13.15;8.00;;;;;;;14.40;71.96;96454.00;5053481;28;20075;-54
2021/08/31 03:00:17;;;;;;;11.02;7.90;;;;;;;14.37;71.22;96456.78;5053565;28;20063;-55
2021/08/31 03:02:43;;;;;;;12.13;8.25;;;;;;;14.25;71.34;96458.31;5053512;28;20035;-57
2021/08/31 03:05:08;;;;;;;11.20;7.95;;;;;;;14.17;72.25;96458.72;5053444;28;20383;-54
2021/08/31 03:07:34;;;;;;;11.80;8.27;;;;;;;14.17;72.89;96463.97;5053323;28;20082;-54
2021/08/31 03:09:59;;;;;;;12.25;7.40;;;;;;;14.21;72.59;96462.88;5053380;28;20021;-54
2021/08/31 03:12:25;;;;;;;12.75;7.97;;;;;;;14.28;72.73;96468.66;5053340;28;20033;-56
2021/08/31 03:14:50;;;;;;;16.65;7.07;;;;;;;14.30;71.80;96473.84;5053258;28;20094;-58
2021/08/31 03:17:16;;;;;;;8.52;7.40;;;;;;;14.30;71.82;96471.22;5035460;28;20072;-56
2021/08/31 03:19:42;;;;;;;12.63;7.68;;;;;;;14.28;71.89;96474.78;5053154;28;20387;-54
2021/08/31 03:22:09;;;;;;;10.85;7.72;;;;;;;14.32;71.58;96479.84;5053233;28;20036;-52
2021/08/31 03:24:36;;;;;;;11.05;7.78;;;;;;;14.30;72.14;96473.84;5053108;28;20086;-55
2021/08/31 03:27:02;;;;;;;11.45;7.60;;;;;;;14.27;72.28;96474.88;5053063;28;20043;-54
2021/08/31 03:29:27;;;;;;;11.40;8.48;;;;;;;14.27;72.85;96474.88;5053134;28;20463;-55
2021/08/31 03:31:53;;;;;;;11.27;6.95;;;;;;;14.27;72.81;96466.97;5053028;28;20025;-54
2021/08/31 03:34:18;;;;;;;11.70;7.85;;;;;;;14.24;71.70;96475.84;5053004;28;20029;-53
2021/08/31 03:36:45;;;;;;;8.63;7.03;;;;;;;14.24;71.06;96480.28;5053077;28;20103;-55
2021/08/31 03:39:10;;;;;;;10.57;7.20;;;;;;;14.24;71.05;96486.38;5053009;28;20052;-54
2021/08/31 03:41:36;;;;;;;15.45;8.90;;;;;;;14.22;72.05;96488.25;5052617;28;20084;-56
2021/08/31 03:44:04;;;;;;;12.50;8.15;;;;;;;14.21;72.67;96486.53;5052624;28;20021;-52
2021/08/31 03:46:30;;;;;;;12.90;7.20;;;;;;;14.23;72.21;96486.47;5052972;28;20033;-57
2021/08/31 03:48:55;;;;;;;11.15;7.22;;;;;;;14.19;71.79;96487.56;5052874;28;20079;-52
2021/08/31 03:51:21;;;;;;;11.15;7.13;;;;;;;14.21;71.29;96490.97;5052865;28;20051;-60
2021/08/31 03:53:46;;;;;;;11.77;6.95;;;;;;;14.17;71.52;96489.44;5052814;28;20505;-55
2021/08/31 03:56:12;;;;;;;11.43;7.07;;;;;;;14.13;71.85;96497.50;5052784;28;20025;-55
2021/08/31 03:58:37;;;;;;;9.85;7.20;;;;;;;14.14;72.35;96493.06;5052783;28;20017;-53
2021/08/31 04:01:03;;;;;;;17.52;7.13;;;;;;;14.18;71.71;96494.59;5052787;28;20017;-55
2021/08/31 04:03:29;;;;;;;10.13;6.65;;;;;;;14.23;71.82;96500.47;5052799;28;20026;-57
2021/08/31 04:05:54;;;;;;;13.07;7.15;;;;;;;14.27;70.95;96501.16;5052684;28;20094;-54
2021/08/31 04:08:20;;;;;;;10.48;7.18;;;;;;;14.26;71.82;96505.56;5052577;28;20032;-55
2021/08/31 04:10:45;;;;;;;11.82;7.40;;;;;;;14.28;71.87;96510.75;5052649;28;20032;-56
2021/08/31 04:13:13;;;;;;;15.23;8.15;;;;;;;14.32;71.85;96511.41;5034940;28;20037;-55
2021/08/31 04:15:39;;;;;;;15.23;8.15;;;;;;;14.36;71.93;96511.19;5052599;28;20103;-53
2021/08/31 04:18:04;;;;;;;13.32;7.93;;;;;;;14.40;72.31;96514.50;5052613;28;20028;-55
2021/08/31 04:20:30;;;;;;;13.55;7.90;;;;;;;14.51;72.15;96511.31;5052605;28;20482;-55
2021/08/31 04:22:56;;;;;;;12.48;7.65;;;;;;;14.59;71.50;96516.13;5052574;28;20108;-55
2021/08/31 04:25:22;;;;;;;15.35;7.82;;;;;;;14.64;72.00;96517.59;5052571;28;20471;-56
2021/08/31 04:27:48;;;;;;;13.20;6.97;;;;;;;14.77;71.19;96527.44;5052537;28;20048;-55
2021/08/31 04:30:14;;;;;;;10.82;7.13;;;;;;;15.07;70.88;96526.69;5052458;28;20471;-58
2021/08/31 04:32:40;;;;;;;10.50;6.75;;;;;;;15.53;69.88;96520.56;5052523;28;20032;-54
2021/08/31 04:35:06;;;;;;;8.82;6.43;;;;;;;16.08;68.72;96521.81;5052509;28;20078;-57
2021/08/31 04:37:32;;;;;;;7.75;5.85;;;;;;;16.60;67.00;96520.41;5052392;28;20032;-57
2021/08/31 04:39:58;;;;;;;8.15;6.50;;;;;;;17.14;65.19;96524.06;5052345;28;20021;-57
2021/08/31 04:42:24;;;;;;;11.52;5.90;;;;;;;17.71;63.71;96529.19;5052104;28;20041;-55
2021/08/31 04:44:50;;;;;;;9.93;5.55;;;;;;;18.20;62.15;96521.53;5052335;28;20025;-58
2021/08/31 04:47:16;;;;;;;8.63;6.07;;;;;;;18.77;60.77;96534.38;5052277;28;20074;-57
2021/08/31 04:49:42;;;;;;;9.63;6.07;;;;;;;19.30;59.57;96526.13;5052278;28;20078;-57
2021/08/31 04:52:08;;;;;;;8.07;6.05;;;;;;;19.79;58.27;96535.84;5052199;28;20425;-58
2021/08/31 04:54:33;;;;;;;9.18;5.60;;;;;;;20.25;57.17;96526.19;5052423;28;20486;-56
2021/08/31 04:56:59;;;;;;;9.55;6.07;;;;;;;20.65;56.31;96524.88;5055280;28;20021;-57
2021/08/31 04:59:24;;;;;;;11.60;6.03;;;;;;;21.12;55.09;96526.50;5055699;28;20083;-57
2021/08/31 05:01:50;;;;;;;7.50;5.82;;;;;;;21.53;54.22;96517.91;5055748;28;20029;-58
2021/08/31 05:04:17;;;;;;;10.98;4.95;;;;;;;21.94;53.30;96521.59;5055741;28;20017;-59
2021/08/31 05:06:42;;;;;;;6.35;4.88;;;;;;;22.36;52.32;96525.19;5055630;28;20113;-55
2021/08/31 05:09:08;;;;;;;5.68;5.07;;;;;;;22.84;52.09;96525.53;5055670;28;20061;-57
2021/08/31 05:11:34;;;;;;;7.43;5.40;;;;;;;23.28;50.88;96529.69;5055584;28;20052;-59
2021/08/31 05:13:59;;;;;;;6.75;4.97;;;;;;;23.70;49.67;96523.28;5055493;28;20026;-58
2021/08/31 05:16:25;;;;;;;9.05;5.78;;;;;;;24.14;48.96;96522.81;5055389;28;20021;-58
2021/08/31 05:18:50;;;;;;;6.78;5.38;;;;;;;24.56;47.84;96516.22;5055510;28;20032;-58
2021/08/31 05:21:16;;;;;;;7.70;4.82;;;;;;;25.00;46.17;96525.47;5055331;28;20025;-58
2021/08/31 05:23:42;;;;;;;6.07;5.07;;;;;;;25.36;45.84;96522.84;5055334;28;20364;-58
2021/08/31 05:26:07;;;;;;;9.20;5.05;;;;;;;25.77;45.77;96524.22;5055352;28;20065;-57
2021/08/31 05:28:33;;;;;;;11.23;5.05;;;;;;;26.17;44.90;96519.31;5055203;28;20025;-58
2021/08/31 05:30:59;;;;;;;7.28;5.03;;;;;;;26.60;44.01;96521.25;5054881;28;20389;-59
2021/08/31 05:33:24;;;;;;;6.90;4.82;;;;;;;26.90;43.35;96512.84;5055014;28;20059;-59
2021/08/31 05:35:50;;;;;;;6.22;5.05;;;;;;;27.16;43.71;96515.47;5055146;28;20028;-57
2021/08/31 05:38:16;;;;;;;8.80;5.80;;;;;;;27.44;42.55;96522.38;5055087;28;20039;-60
2021/08/31 05:40:41;;;;;;;8.10;5.93;;;;;;;27.66;40.73;96514.72;5054718;28;20060;-60
2021/08/31 05:43:07;;;;;;;10.77;6.07;;;;;;;27.96;41.27;96523.94;5055062;28;20017;-60
2021/08/31 05:45:33;;;;;;;8.85;5.75;;;;;;;28.22;40.98;96519.38;5054891;28;20356;-60
2021/08/31 05:47:59;;;;;;;13.55;5.80;;;;;;;28.38;40.68;96513.97;5054830;28;20021;-57
2021/08/31 05:50:25;;;;;;;13.77;7.63;;;;;;;28.46;40.33;96520.34;5054915;28;20044;-55
2021/08/31 05:52:50;;;;;;;8.10;6.53;;;;;;;28.56;41.07;96506.72;5054700;28;20374;-56
2021/08/31 05:55:17;;;;;;;9.75;7.47;;;;;;;28.77;40.28;96511.50;5054713;28;20028;-58
2021/08/31 05:57:43;;;;;;;11.23;6.93;;;;;;;29.00;40.13;96513.44;5054719;28;20021;-58
2021/08/31 06:00:11;;;;;;;7.72;6.50;;;;;;;29.08;39.67;96516.06;5054784;28;20132;-57
2021/08/31 06:02:38;;;;;;;10.98;6.43;;;;;;;29.18;39.78;96515.88;5054673;28;20029;-57
2021/08/31 06:05:05;;;;;;;9.80;6.43;;;;;;;29.24;40.32;96509.78;5054456;28;20029;-57
2021/08/31 06:07:34;;;;;;;11.68;7.47;;;;;;;29.23;38.96;96513.47;5036674;28;20467;-59
2021/08/31 06:10:03;;;;;;;11.85;7.80;;;;;;;29.34;38.82;96514.94;5054394;28;20025;-56
2021/08/31 06:12:29;;;;;;;18.55;6.55;;;;;;;29.36;39.45;96518.28;5054428;28;20029;-58
2021/08/31 06:14:55;;;;;;;10.85;6.28;;;;;;;29.25;39.15;96513.28;5054445;28;20118;-57
2021/08/31 06:17:22;;;;;;;11.70;6.30;;;;;;;29.25;38.04;96516.84;5054231;28;20021;-56
2021/08/31 06:19:48;;;;;;;11.40;6.32;;;;;;;29.34;39.11;96517.63;5054191;28;20402;-57
2021/08/31 06:22:14;;;;;;;10.48;6.15;;;;;;;29.35;37.49;96511.22;5054272;28;20083;-58
2021/08/31 06:24:40;;;;;;;17.15;6.93;;;;;;;29.28;38.50;96515.63;5054200;28;20470;-58
2021/08/31 06:27:06;;;;;;;6.40;5.55;;;;;;;29.09;37.44;96519.63;5054269;28;20025;-58
2021/08/31 06:29:31;;;;;;;10.43;6.57;;;;;;;29.11;39.12;96518.41;5036229;28;20116;-59
2021/08/31 06:31:57;;;;;;;8.68;6.25;;;;;;;29.34;37.89;96520.31;5054003;28;20029;-59
2021/08/31 06:34:23;;;;;;;10.20;6.70;;;;;;;29.34;37.77;96514.94;5053930;28;20021;-57
2021/08/31 06:36:49;;;;;;;7.82;6.72;;;;;;;29.41;38.00;96519.59;5054004;28;20379;-59
2021/08/31 06:39:15;;;;;;;6.63;5.93;;;;;;;29.63;36.48;96512.56;5053973;28;20047;-60
2021/08/31 06:41:41;;;;;;;8.13;5.85;;;;;;;29.72;36.52;96519.59;5053581;28;20037;-60
2021/08/31 06:44:06;;;;;;;9.85;5.82;;;;;;;29.99;36.72;96514.63;5053851;28;20463;-55
2021/08/31 06:46:32;;;;;;;10.13;6.50;;;;;;;30.26;35.90;96514.25;5053755;28;20021;-57
2021/08/31 06:48:57;;;;;;;10.77;6.13;;;;;;;30.50;35.57;96515.00;5053712;28;20051;-58
2021/08/31 06:51:23;;;;;;;12.40;6.38;;;;;;;30.65;35.58;96512.28;5053690;28;20021;-59
2021/08/31 06:53:49;;;;;;;11.23;5.90;;;;;;;30.73;35.69;96509.47;5053641;28;20046;-59
2021/08/31 06:56:14;;;;;;;6.28;5.60;;;;;;;30.82;35.59;96512.13;5053569;28;20029;-60
2021/08/31 06:58:40;;;;;;;8.25;6.10;;;;;;;30.95;36.11;96519.53;5053560;28;20044;-60
2021/08/31 07:01:06;;;;;;;14.70;6.45;;;;;;;31.10;34.29;96517.66;5053510;28;20028;-58
2021/08/31 07:03:31;;;;;;;8.52;5.55;;;;;;;31.15;33.32;96520.63;5053555;28;20086;-57
2021/08/31 07:05:57;;;;;;;9.55;5.97;;;;;;;31.19;33.14;96514.84;5053449;28;20482;-59
2021/08/31 07:08:22;;;;;;;6.30;5.65;;;;;;;31.39;32.85;96520.47;5053412;28;20024;-59
2021/08/31 07:10:48;;;;;;;7.28;6.38;;;;;;;31.61;32.61;96523.22;5053531;28;20494;-58
2021/08/31 07:13:15;;;;;;;7.25;5.90;;;;;;;31.65;32.67;96519.94;5053426;28;20059;-61
2021/08/31 07:15:41;;;;;;;8.45;5.78;;;;;;;31.70;31.45;96524.75;5053367;28;20472;-58
2021/08/31 07:18:07;;;;;;;8.25;6.32;;;;;;;31.77;32.05;96520.25;5052617;28;20025;-57
2021/08/31 07:20:33;;;;;;;6.38;5.75;;;;;;;31.87;31.52;96521.75;5053180;28;20047;-57
2021/08/31 07:22:59;;;;;;;6.53;5.80;;;;;;;31.83;32.38;96532.16;5053115;28;20067;-58
2021/08/31 07:25:25;;;;;;;7.85;6.15;;;;;;;31.92;31.05;96523.88;5053143;28;20461;-59
2021/08/31 07:27:50;;;;;;;7.80;6.40;;;;;;;31.99;30.96;96522.94;5053260;28;20035;-56
2021/08/31 07:30:16;;;;;;;7.57;6.60;;;;;;;31.50;31.75;96519.16;5053124;28;20076;-58
2021/08/31 07:32:42;;;;;;;8.73;6.68;;;;;;;31.09;30.33;96517.84;5052991;28;20111;-59
2021/08/31 07:35:11;;;;;;;6.88;6.13;;;;;;;30.97;33.30;96506.72;5053028;28;20041;-59
2021/08/31 07:37:37;;;;;;;6.95;6.25;;;;;;;30.59;33.53;96507.66;5052948;28;20031;-58
2021/08/31 07:40:04;;;;;;;8.38;6.03;;;;;;;30.79;34.93;96517.91;5052893;28;20017;-58
2021/08/31 07:42:30;;;;;;;8.35;6.60;;;;;;;30.98;34.38;96513.78;5052721;28;20418;-57
2021/08/31 07:44:56;;;;;;;7.78;6.22;;;;;;;31.06;33.99;96510.94;5052898;28;20029;-60
2021/08/31 07:47:22;;;;;;;7.05;6.35;;;;;;;31.00;32.88;96514.44;5053092;28;20025;-59
2021/08/31 07:49:48;;;;;;;7.57;6.75;;;;;;;31.31;32.95;96515.19;5052892;28;20028;-59
2021/08/31 07:52:13;;;;;;;9.68;6.60;;;;;;;31.22;32.09;96517.16;5052847;28;20032;-58
2021/08/31 07:54:39;;;;;;;9.02;5.88;;;;;;;31.04;33.00;96518.44;5052808;28;20029;-57
2021/08/31 07:57:05;;;;;;;9.27;6.05;;;;;;;31.06;32.45;96515.53;5052812;28;20098;-56
2021/08/31 07:59:31;;;;;;;9.18;6.20;;;;;;;31.07;33.30;96512.66;5052871;28;20076;-59
2021/08/31 08:01:57;;;;;;;10.70;6.38;;;;;;;31.07;33.00;96515.34;5052744;28;20562;-57
2021/08/31 08:04:22;;;;;;;11.05;6.53;;;;;;;31.33;34.40;96519.34;5052849;28;20075;-57
2021/08/31 08:06:48;;;;;;;10.35;6.40;;;;;;;31.01;32.06;96514.25;5052736;28;20033;-58
2021/08/31 08:09:14;;;;;;;9.05;6.55;;;;;;;30.76;33.06;96511.84;5052631;28;20059;-56
2021/08/31 08:11:39;;;;;;;11.45;7.05;;;;;;;30.51;34.46;96508.56;5052802;28;20033;-60
2021/08/31 08:14:06;;;;;;;7.22;6.43;;;;;;;30.59;33.96;96510.34;5052622;28;20056;-56
2021/08/31 08:16:32;;;;;;;8.52;6.57;;;;;;;30.51;34.06;96503.16;5052641;28;20040;-58
2021/08/31 08:18:57;;;;;;;7.32;6.10;;;;;;;30.51;33.04;96501.31;5052642;28;20033;-58
2021/08/31 08:21:23;;;;;;;7.22;6.28;;;;;;;30.57;34.44;96501.59;5052571;28;20025;-56
2021/08/31 08:23:49;;;;;;;13.10;6.05;;;;;;;30.86;33.76;96500.78;5052373;28;20021;-59
2021/08/31 08:26:15;;;;;;;7.32;6.22;;;;;;;31.19;32.75;96494.09;5052604;28;20032;-59
2021/08/31 08:28:40;;;;;;;9.95;6.90;;;;;;;31.27;32.00;96493.09;5052538;28;20025;-57
2021/08/31 08:31:10;;;;;;;13.25;6.18;;;;;;;31.37;33.09;96499.09;5054436;28;20017;-60
2021/08/31 08:33:35;;;;;;;7.20;6.40;;;;;;;31.51;33.16;96488.38;5056371;28;20033;-57
2021/08/31 08:36:05;;;;;;;10.63;6.60;;;;;;;31.52;33.68;96488.19;5056256;28;20032;-59
2021/08/31 08:38:31;;;;;;;9.27;6.00;;;;;;;31.47;31.39;96489.81;5056207;28;20098;-56
2021/08/31 08:40:58;;;;;;;9.05;6.05;;;;;;;30.96;32.16;96488.81;5056077;28;20278;-59
2021/08/31 08:43:24;;;;;;;7.70;6.47;;;;;;;31.04;32.94;96482.47;5056116;28;20025;-57
2021/08/31 08:45:50;;;;;;;8.23;6.80;;;;;;;30.71;33.73;96478.31;5056041;28;20024;-55
2021/08/31 08:48:21;;;;;;;8.07;6.00;;;;;;;30.84;34.01;96477.66;5056065;28;20068;-59
2021/08/31 08:50:48;;;;;;;7.28;6.55;;;;;;;30.79;32.03;96475.53;5056132;28;20029;-60
2021/08/31 08:53:14;;;;;;;10.52;7.13;;;;;;;30.30;34.95;96477.78;5056088;28;20021;-56
2021/08/31 08:55:43;;;;;;;7.50;6.28;;;;;;;29.75;35.27;96478.81;5055854;28;20017;-60
2021/08/31 08:58:10;;;;;;;8.77;6.28;;;;;;;29.97;35.29;96475.38;5055794;28;20497;-57
2021/08/31 09:01:03;;;;;;;9.85;6.18;;;;;;;30.32;33.95;96481.16;5055783;28;20108;-57
2021/08/31 09:03:31;;;;;;;6.85;6.05;;;;;;;30.33;32.55;96474.72;5055776;28;20072;-58
2021/08/31 09:06:12;;;;;;;12.10;6.68;;;;;;;30.43;35.08;96476.31;5055726;28;20048;-55
2021/08/31 09:08:43;;;;;;;7.15;6.45;;;;;;;30.46;31.57;96475.94;5055701;28;20025;-58
2021/08/31 09:11:34;;;;;;;;;;;;;;;30.31;33.68;96474.06;5055967;28;20458;-59
2021/08/31 09:14:21;;;;;;;12.35;6.65;;;;;;;30.32;34.07;96473.06;5051519;28;19938;-57
2021/08/31 09:16:53;;;;;;;9.55;5.93;;;;;;;30.21;31.44;96470.78;5055553;28;20383;-60
2021/08/31 09:19:32;;;;;;;6.32;5.72;;;;;;;30.23;33.05;96466.91;5055561;28;20025;-58
2021/08/31 09:22:20;;;;;;;8.73;6.07;;;;;;;30.49;35.88;96472.88;5055483;28;20457;-58
2021/08/31 09:25:07;;;;;;;9.88;6.43;;;;;;;30.42;34.53;96472.75;5055436;28;20017;-59
2021/08/31 09:27:36;;;;;;;7.38;6.55;;;;;;;30.22;33.18;96462.53;5055429;28;20025;-59
2021/08/31 09:30:19;;;;;;;7.93;5.78;;;;;;;30.29;33.74;96456.38;5055354;28;20025;-57
2021/08/31 09:33:06;;;;;;;7.07;5.65;;;;;;;30.37;30.40;96457.13;5055321;28;20025;-57
2021/08/31 09:35:36;;;;;;;10.25;6.75;;;;;;;30.31;31.71;96448.97;5055136;28;20029;-59
2021/08/31 09:38:05;;;;;;;6.80;6.20;;;;;;;30.32;33.20;96451.47;5055270;28;20031;-57
2021/08/31 09:40:38;;;;;;;8.65;6.47;;;;;;;30.20;33.79;96448.41;5055000;28;20025;-58
2021/08/31 09:43:07;;;;;;;7.95;6.38;;;;;;;29.80;34.39;96454.00;5054747;28;20086;-58
2021/08/31 09:45:37;;;;;;;7.22;6.47;;;;;;;29.68;35.43;96450.06;5054908;28;20079;-57
2021/08/31 09:48:05;;;;;;;10.73;7.30;;;;;;;29.77;35.45;96447.09;5055030;28;20083;-57
2021/08/31 09:50:41;;;;;;;10.02;6.60;;;;;;;29.78;35.22;96442.56;5054862;28;20028;-57
2021/08/31 09:53:11;;;;;;;16.40;7.15;;;;;;;29.70;35.29;96448.84;5054837;28;20031;-57
2021/08/31 09:55:38;;;;;;;8.40;6.93;;;;;;;29.72;36.50;96440.59;5054881;28;20037;-59
2021/08/31 09:58:16;;;;;;;7.93;6.30;;;;;;;29.94;34.64;96428.09;5054850;28;20041;-57
2021/08/31 10:00:44;;;;;;;8.00;6.57;;;;;;;29.97;36.07;96426.88;5054646;28;20556;-57
2021/08/31 10:03:11;;;;;;;9.52;6.95;;;;;;;30.12;34.33;96416.94;5054452;28;20029;-59
2021/08/31 10:05:40;;;;;;;8.00;7.00;;;;;;;30.04;35.74;96418.91;5054559;28;20037;-57
2021/08/31 10:08:07;;;;;;;10.30;7.05;;;;;;;30.11;35.39;96411.72;5054580;28;20033;-59
2021/08/31 10:10:34;;;;;;;13.13;6.65;;;;;;;29.74;33.21;96415.13;5054432;28;20021;-59
2021/08/31 10:13:08;;;;;;;7.93;6.72;;;;;;;29.60;35.11;96410.56;5054352;28;20663;-57
2021/08/31 10:15:39;;;;;;;10.27;6.82;;;;;;;29.58;34.88;96408.03;5054554;28;20518;-55
2021/08/31 10:18:07;;;;;;;8.25;6.80;;;;;;;29.63;38.08;96415.59;5054403;28;20017;-60
2021/08/31 10:20:34;;;;;;;9.10;6.90;;;;;;;29.65;35.82;96410.88;5054400;28;20070;-59
2021/08/31 10:23:02;;;;;;;9.18;7.18;;;;;;;29.50;35.53;96408.09;5054048;28;20036;-57
2021/08/31 10:25:28;;;;;;;8.05;6.97;;;;;;;29.45;35.54;96402.41;5054221;28;20021;-58
2021/08/31 10:27:55;;;;;;;9.30;7.88;;;;;;;29.46;34.67;96407.63;5036360;28;20027;-57
2021/08/31 10:30:20;;;;;;;8.05;6.82;;;;;;;29.56;34.61;96406.56;5054148;28;20422;-57
2021/08/31 10:32:50;;;;;;;11.50;6.63;;;;;;;29.72;33.25;96392.94;5054084;28;20029;-58
2021/08/31 10:35:43;;;;;;;9.45;6.97;;;;;;;29.81;33.44;96392.84;5054081;28;20035;-57
2021/08/31 10:38:11;;;;;;;7.88;6.95;;;;;;;29.87;35.02;96392.97;5054109;28;20160;-58
2021/08/31 10:40:38;;;;;;;7.25;6.43;;;;;;;29.59;34.10;96392.72;5053708;28;20032;-58
2021/08/31 10:43:08;;;;;;;12.00;6.22;;;;;;;29.46;33.14;96385.22;5053985;28;20115;-58
2021/08/31 10:45:38;;;;;;;;;;;;;;;29.44;33.30;96381.91;5054279;28;20382;-58
2021/08/31 10:48:24;;;;;;;9.65;7.00;;;;;;;29.32;35.16;96387.72;5053841;28;19967;-58
2021/08/31 10:51:03;;;;;;;7.07;6.38;;;;;;;29.21;33.94;96382.75;5053776;28;20035;-56
2021/08/31 10:53:45;;;;;;;6.95;6.25;;;;;;;29.16;33.46;96377.09;5035237;28;20029;-59
2021/08/31 10:56:23;;;;;;;6.63;6.03;;;;;;;29.10;34.41;96375.94;5053707;28;20025;-59
2021/08/31 10:59:01;;;;;;;8.52;6.28;;;;;;;29.25;35.00;96371.44;5053511;28;20082;-57
2021/08/31 11:01:41;;;;;;;10.13;6.53;;;;;;;29.61;33.12;96372.66;5053522;28;20037;-59
2021/08/31 11:04:29;;;;;;;8.57;6.85;;;;;;;29.35;33.55;96364.97;5053559;28;20406;-58
2021/08/31 11:07:02;;;;;;;9.77;6.63;;;;;;;29.29;33.73;96366.53;5053443;28;20041;-57
2021/08/31 11:09:29;;;;;;;6.97;6.05;;;;;;;29.17;32.99;96363.44;5053456;28;20029;-58
2021/08/31 11:12:09;;;;;;;8.45;6.15;;;;;;;29.11;33.28;96354.22;5053338;28;20021;-56
2021/08/31 11:14:42;;;;;;;;;;;;;;;28.95;32.61;96351.66;5053661;28;20107;-55
2021/08/31 11:17:09;;;;;;;8.35;6.32;;;;;;;28.67;32.73;96352.16;5035611;28;19916;-58
2021/08/31 11:19:34;;;;;;;7.43;6.03;;;;;;;28.71;32.88;96354.31;5053255;28;20544;-58
2021/08/31 11:22:00;;;;;;;7.78;6.30;;;;;;;28.62;34.40;96350.84;5053106;28;20029;-59
2021/08/31 11:24:26;;;;;;;6.97;5.63;;;;;;;28.67;36.23;96353.00;5053138;28;20027;-58
2021/08/31 11:27:05;;;;;;;9.32;6.35;;;;;;;28.81;35.16;96346.03;5053230;28;20070;-59
2021/08/31 11:29:31;;;;;;;10.77;5.93;;;;;;;29.07;32.78;96349.41;5053149;28;20037;-57